sensor_id;sensor_type;location;lat;lon;timestamp;noise_LAeq;noise_LA_min;noise_LA_max;noise_LA01;noise_LA95
18377;Laerm;9315;52.624;13.544;2023-08-06T00:00:00;49.67;30.96;68.05;;
18377;Laerm;9315;52.624;13.544;2023-08-06T00:02:27;49.31;30.45;67.60;;
18377;Laerm;9315;52.624;13.544;2023-08-06T00:04:54;59.70;30.22;79.73;;
18377;Laerm;9315;52.624;13.544;2023-08-06T00:07:22;59.50;31.51;78.01;;
18377;Laerm;9315;52.624;13.544;2023-08-06T00:09:49;56.66;30.89;73.35;;
18377;Laerm;9315;52.624;13.544;2023-08-06T00:12:16;33.42;30.83;36.83;;
18377;Laerm;9315;52.624;13.544;2023-08-06T00:14:43;55.26;31.01;69.28;;
18377;Laerm;9315;52.624;13.544;2023-08-06T00:17:11;56.75;30.15;74.77;;
18377;Laerm;9315;52.624;13.544;2023-08-06T00:19:38;57.50;29.85;73.29;;
18377;Laerm;9315;52.624;13.544;2023-08-06T00:22:05;53.84;30.26;73.20;;
18377;Laerm;9315;52.624;13.544;2023-08-06T00:24:33;32.73;29.91;39.44;;
18377;Laerm;9315;52.624;13.544;2023-08-06T00:27:01;51.63;30.51;69.59;;
18377;Laerm;9315;52.624;13.544;2023-08-06T00:29:28;59.90;30.08;77.54;;
18377;Laerm;9315;52.624;13.544;2023-08-06T00:31:55;54.72;29.28;70.32;;
18377;Laerm;9315;52.624;13.544;2023-08-06T00:34:23;57.43;29.26;70.67;;
18377;Laerm;9315;52.624;13.544;2023-08-06T00:36:50;37.75;29.89;51.47;;
18377;Laerm;9315;52.624;13.544;2023-08-06T00:39:17;51.38;30.51;67.81;;
18377;Laerm;9315;52.624;13.544;2023-08-06T00:41:45;32.21;29.90;34.98;;
18377;Laerm;9315;52.624;13.544;2023-08-06T00:44:12;32.00;29.45;38.28;;
18377;Laerm;9315;52.624;13.544;2023-08-06T00:46:39;33.16;29.84;53.77;;
18377;Laerm;9315;52.624;13.544;2023-08-06T00:49:07;56.68;32.37;71.93;;
18377;Laerm;9315;52.624;13.544;2023-08-06T00:51:34;56.58;31.30;72.13;;
18377;Laerm;9315;52.624;13.544;2023-08-06T00:54:02;54.42;30.23;71.54;;
18377;Laerm;9315;52.624;13.544;2023-08-06T00:56:30;50.97;30.94;72.03;;
18377;Laerm;9315;52.624;13.544;2023-08-06T00:58:57;33.08;30.70;36.54;;
18377;Laerm;9315;52.624;13.544;2023-08-06T01:01:24;42.55;30.36;63.64;;
18377;Laerm;9315;52.624;13.544;2023-08-06T01:03:53;62.55;32.72;78.25;;
18377;Laerm;9315;52.624;13.544;2023-08-06T01:07:02;34.61;30.79;43.33;;
18377;Laerm;9315;52.624;13.544;2023-08-06T01:09:50;56.29;30.68;76.32;;
18377;Laerm;9315;52.624;13.544;2023-08-06T01:13:31;34.91;30.58;42.49;;
18377;Laerm;9315;52.624;13.544;2023-08-06T01:15:50;57.55;31.55;72.95;;
18377;Laerm;9315;52.624;13.544;2023-08-06T01:18:21;55.84;32.54;72.23;;
18377;Laerm;9315;52.624;13.544;2023-08-06T01:20:48;56.57;33.88;73.93;;
18377;Laerm;9315;52.624;13.544;2023-08-06T01:23:17;38.61;33.63;54.73;;
18377;Laerm;9315;52.624;13.544;2023-08-06T01:26:35;55.17;34.04;72.18;;
18377;Laerm;9315;52.624;13.544;2023-08-06T01:29:30;54.88;34.99;73.85;;
18377;Laerm;9315;52.624;13.544;2023-08-06T01:31:58;37.11;33.15;45.40;;
18377;Laerm;9315;52.624;13.544;2023-08-06T01:34:32;35.62;32.97;40.60;;
18377;Laerm;9315;52.624;13.544;2023-08-06T01:37:00;58.94;32.51;77.03;;
18377;Laerm;9315;52.624;13.544;2023-08-06T01:39:32;53.30;32.93;67.67;;
18377;Laerm;9315;52.624;13.544;2023-08-06T01:42:00;36.79;32.04;45.07;;
18377;Laerm;9315;52.624;13.544;2023-08-06T01:44:27;53.16;32.51;71.70;;
18377;Laerm;9315;52.624;13.544;2023-08-06T01:46:54;37.99;31.67;56.62;;
18377;Laerm;9315;52.624;13.544;2023-08-06T01:49:21;60.22;33.38;77.05;;
18377;Laerm;9315;52.624;13.544;2023-08-06T01:51:48;54.90;33.58;73.86;;
18377;Laerm;9315;52.624;13.544;2023-08-06T01:54:16;54.03;35.09;70.63;;
18377;Laerm;9315;52.624;13.544;2023-08-06T01:56:43;55.42;40.13;71.88;;
18377;Laerm;9315;52.624;13.544;2023-08-06T01:59:10;55.67;39.97;73.50;;
18377;Laerm;9315;52.624;13.544;2023-08-06T02:01:37;60.42;39.11;75.16;;
18377;Laerm;9315;52.624;13.544;2023-08-06T02:04:05;52.52;38.34;67.19;;
18377;Laerm;9315;52.624;13.544;2023-08-06T02:06:32;39.84;37.55;51.27;;
18377;Laerm;9315;52.624;13.544;2023-08-06T02:08:59;49.52;35.49;66.17;;
18377;Laerm;9315;52.624;13.544;2023-08-06T02:11:26;57.87;34.33;72.74;;
18377;Laerm;9315;52.624;13.544;2023-08-06T02:13:53;57.38;32.93;71.21;;
18377;Laerm;9315;52.624;13.544;2023-08-06T02:16:21;35.37;31.97;58.20;;
18377;Laerm;9315;52.624;13.544;2023-08-06T02:18:48;56.28;32.97;71.74;;
18377;Laerm;9315;52.624;13.544;2023-08-06T02:21:15;48.17;32.46;62.59;;
18377;Laerm;9315;52.624;13.544;2023-08-06T02:23:43;59.69;32.66;78.84;;
18377;Laerm;9315;52.624;13.544;2023-08-06T02:26:10;64.68;33.86;79.76;;
18377;Laerm;9315;52.624;13.544;2023-08-06T02:28:37;59.92;32.88;78.60;;
18377;Laerm;9315;52.624;13.544;2023-08-06T02:31:04;60.10;32.27;75.33;;
18377;Laerm;9315;52.624;13.544;2023-08-06T02:33:33;61.36;32.66;75.48;;
18377;Laerm;9315;52.624;13.544;2023-08-06T02:36:02;51.80;31.00;67.20;;
18377;Laerm;9315;52.624;13.544;2023-08-06T02:38:33;60.99;31.69;74.29;;
18377;Laerm;9315;52.624;13.544;2023-08-06T02:41:03;54.25;30.93;70.30;;
18377;Laerm;9315;52.624;13.544;2023-08-06T02:43:31;59.57;31.92;74.99;;
18377;Laerm;9315;52.624;13.544;2023-08-06T02:46:00;65.14;33.72;81.56;;
18377;Laerm;9315;52.624;13.544;2023-08-06T02:48:27;65.88;35.91;85.01;;
18377;Laerm;9315;52.624;13.544;2023-08-06T02:50:58;64.17;35.17;78.49;;
18377;Laerm;9315;52.624;13.544;2023-08-06T02:53:29;73.63;33.79;91.65;;
18377;Laerm;9315;52.624;13.544;2023-08-06T02:55:56;63.84;33.37;80.42;;
18377;Laerm;9315;52.624;13.544;2023-08-06T02:58:23;59.33;33.75;75.28;;
18377;Laerm;9315;52.624;13.544;2023-08-06T03:01:05;58.30;33.71;77.82;;
18377;Laerm;9315;52.624;13.544;2023-08-06T03:03:34;63.75;35.93;79.54;;
18377;Laerm;9315;52.624;13.544;2023-08-06T03:06:01;60.19;35.02;73.86;;
18377;Laerm;9315;52.624;13.544;2023-08-06T03:08:29;60.85;34.90;74.33;;
18377;Laerm;9315;52.624;13.544;2023-08-06T03:10:56;63.02;33.00;81.49;;
18377;Laerm;9315;52.624;13.544;2023-08-06T03:13:23;62.35;34.62;75.51;;
18377;Laerm;9315;52.624;13.544;2023-08-06T03:15:56;62.93;34.17;76.24;;
18377;Laerm;9315;52.624;13.544;2023-08-06T03:18:24;61.72;34.13;78.72;;
18377;Laerm;9315;52.624;13.544;2023-08-06T03:20:53;60.37;32.25;73.04;;
18377;Laerm;9315;52.624;13.544;2023-08-06T03:23:20;63.61;33.89;74.95;;
18377;Laerm;9315;52.624;13.544;2023-08-06T03:25:47;58.70;33.91;76.76;;
18377;Laerm;9315;52.624;13.544;2023-08-06T03:28:15;61.83;36.25;74.96;;
18377;Laerm;9315;52.624;13.544;2023-08-06T03:30:42;60.49;34.71;75.18;;
18377;Laerm;9315;52.624;13.544;2023-08-06T03:33:09;61.68;38.44;74.60;;
18377;Laerm;9315;52.624;13.544;2023-08-06T03:35:36;54.54;34.41;73.55;;
18377;Laerm;9315;52.624;13.544;2023-08-06T03:38:04;59.39;33.62;77.40;;
18377;Laerm;9315;52.624;13.544;2023-08-06T03:40:31;62.02;34.02;76.69;;
18377;Laerm;9315;52.624;13.544;2023-08-06T03:42:58;58.35;34.06;71.90;;
18377;Laerm;9315;52.624;13.544;2023-08-06T03:45:25;62.09;35.19;75.83;;
18377;Laerm;9315;52.624;13.544;2023-08-06T03:47:52;61.18;35.85;78.62;;
18377;Laerm;9315;52.624;13.544;2023-08-06T03:50:20;57.21;32.60;73.27;;
18377;Laerm;9315;52.624;13.544;2023-08-06T03:52:47;62.68;33.50;79.02;;
18377;Laerm;9315;52.624;13.544;2023-08-06T03:55:14;60.96;33.40;81.39;;
18377;Laerm;9315;52.624;13.544;2023-08-06T03:57:41;64.13;34.89;83.20;;
18377;Laerm;9315;52.624;13.544;2023-08-06T04:00:09;61.21;35.07;76.21;;
18377;Laerm;9315;52.624;13.544;2023-08-06T04:02:36;58.23;33.22;73.40;;
18377;Laerm;9315;52.624;13.544;2023-08-06T04:05:04;60.79;34.43;75.51;;
18377;Laerm;9315;52.624;13.544;2023-08-06T04:07:31;62.91;34.98;78.06;;
18377;Laerm;9315;52.624;13.544;2023-08-06T04:10:01;63.26;36.36;79.67;;
18377;Laerm;9315;52.624;13.544;2023-08-06T04:12:30;59.36;32.56;76.30;;
18377;Laerm;9315;52.624;13.544;2023-08-06T04:14:59;60.27;34.47;78.55;;
18377;Laerm;9315;52.624;13.544;2023-08-06T04:17:26;59.65;32.53;74.82;;
18377;Laerm;9315;52.624;13.544;2023-08-06T04:19:54;62.22;32.67;77.09;;
18377;Laerm;9315;52.624;13.544;2023-08-06T04:22:22;64.51;32.05;76.71;;
18377;Laerm;9315;52.624;13.544;2023-08-06T04:24:49;63.74;33.09;78.61;;
18377;Laerm;9315;52.624;13.544;2023-08-06T04:27:18;63.97;35.91;78.55;;
18377;Laerm;9315;52.624;13.544;2023-08-06T04:29:46;62.58;33.55;79.75;;
18377;Laerm;9315;52.624;13.544;2023-08-06T04:32:13;37.55;31.47;51.19;;
18377;Laerm;9315;52.624;13.544;2023-08-06T04:34:40;62.79;31.33;78.80;;
18377;Laerm;9315;52.624;13.544;2023-08-06T04:37:07;60.79;32.10;75.82;;
18377;Laerm;9315;52.624;13.544;2023-08-06T04:39:34;62.73;31.96;75.26;;
18377;Laerm;9315;52.624;13.544;2023-08-06T04:42:02;65.05;34.90;78.93;;
18377;Laerm;9315;52.624;13.544;2023-08-06T04:44:29;61.28;31.21;79.68;;
18377;Laerm;9315;52.624;13.544;2023-08-06T04:46:56;58.62;31.78;74.17;;
18377;Laerm;9315;52.624;13.544;2023-08-06T04:49:25;56.20;30.69;73.90;;
18377;Laerm;9315;52.624;13.544;2023-08-06T04:51:52;62.41;32.04;76.61;;
18377;Laerm;9315;52.624;13.544;2023-08-06T04:54:19;63.00;31.49;80.49;;
18377;Laerm;9315;52.624;13.544;2023-08-06T04:56:46;61.45;32.06;77.69;;
18377;Laerm;9315;52.624;13.544;2023-08-06T04:59:14;66.95;32.26;81.97;;
18377;Laerm;9315;52.624;13.544;2023-08-06T05:01:41;55.97;31.31;72.64;;
18377;Laerm;9315;52.624;13.544;2023-08-06T05:04:08;61.46;30.36;76.19;;
18377;Laerm;9315;52.624;13.544;2023-08-06T05:06:35;47.46;30.84;62.73;;
18377;Laerm;9315;52.624;13.544;2023-08-06T05:09:05;59.48;31.64;73.53;;
18377;Laerm;9315;52.624;13.544;2023-08-06T05:11:33;56.19;31.04;75.42;;
18377;Laerm;9315;52.624;13.544;2023-08-06T05:14:00;58.64;30.47;73.82;;
18377;Laerm;9315;52.624;13.544;2023-08-06T05:16:27;63.00;30.74;78.16;;
18377;Laerm;9315;52.624;13.544;2023-08-06T05:18:55;64.77;31.11;78.90;;
18377;Laerm;9315;52.624;13.544;2023-08-06T05:21:22;62.01;31.10;78.20;;
18377;Laerm;9315;52.624;13.544;2023-08-06T05:23:49;59.58;31.26;75.10;;
18377;Laerm;9315;52.624;13.544;2023-08-06T05:26:16;61.70;31.03;74.95;;
18377;Laerm;9315;52.624;13.544;2023-08-06T05:28:45;65.53;34.86;80.00;;
18377;Laerm;9315;52.624;13.544;2023-08-06T05:31:13;61.06;31.09;75.50;;
18377;Laerm;9315;52.624;13.544;2023-08-06T05:33:40;57.83;31.18;74.18;;
18377;Laerm;9315;52.624;13.544;2023-08-06T05:36:07;61.07;31.80;74.68;;
18377;Laerm;9315;52.624;13.544;2023-08-06T05:38:37;62.21;32.46;77.33;;
18377;Laerm;9315;52.624;13.544;2023-08-06T05:41:05;64.30;32.81;76.48;;
18377;Laerm;9315;52.624;13.544;2023-08-06T05:43:32;58.41;33.06;73.41;;
18377;Laerm;9315;52.624;13.544;2023-08-06T05:45:59;60.45;33.50;76.36;;
18377;Laerm;9315;52.624;13.544;2023-08-06T05:48:26;64.02;34.60;78.04;;
18377;Laerm;9315;52.624;13.544;2023-08-06T05:50:54;51.32;34.53;71.08;;
18377;Laerm;9315;52.624;13.544;2023-08-06T05:53:22;60.36;34.78;75.83;;
18377;Laerm;9315;52.624;13.544;2023-08-06T05:55:49;58.94;34.65;74.08;;
18377;Laerm;9315;52.624;13.544;2023-08-06T05:58:17;63.55;35.33;75.99;;
18377;Laerm;9315;52.624;13.544;2023-08-06T06:00:45;63.84;36.14;78.82;;
18377;Laerm;9315;52.624;13.544;2023-08-06T06:03:12;65.11;36.36;78.74;;
18377;Laerm;9315;52.624;13.544;2023-08-06T06:05:41;63.10;34.18;75.05;;
18377;Laerm;9315;52.624;13.544;2023-08-06T06:08:09;65.57;35.01;77.80;;
18377;Laerm;9315;52.624;13.544;2023-08-06T06:10:36;60.35;32.95;75.92;;
18377;Laerm;9315;52.624;13.544;2023-08-06T06:13:03;47.60;33.68;67.34;;
18377;Laerm;9315;52.624;13.544;2023-08-06T06:15:30;66.14;38.43;77.46;;
18377;Laerm;9315;52.624;13.544;2023-08-06T06:17:58;63.29;37.67;78.38;;
18377;Laerm;9315;52.624;13.544;2023-08-06T06:20:25;64.59;38.44;77.72;;
18377;Laerm;9315;52.624;13.544;2023-08-06T06:22:52;66.80;39.23;78.27;;
18377;Laerm;9315;52.624;13.544;2023-08-06T06:25:19;67.74;41.73;79.58;;
18377;Laerm;9315;52.624;13.544;2023-08-06T06:27:46;66.96;38.01;79.43;;
18377;Laerm;9315;52.624;13.544;2023-08-06T06:30:13;67.14;39.13;79.94;;
18377;Laerm;9315;52.624;13.544;2023-08-06T06:32:41;68.09;36.49;79.60;;
18377;Laerm;9315;52.624;13.544;2023-08-06T06:35:09;62.83;36.25;76.84;;
18377;Laerm;9315;52.624;13.544;2023-08-06T06:37:36;69.48;41.36;81.87;;
18377;Laerm;9315;52.624;13.544;2023-08-06T06:40:05;66.22;35.75;80.37;;
18377;Laerm;9315;52.624;13.544;2023-08-06T06:42:32;68.86;36.39;79.84;;
18377;Laerm;9315;52.624;13.544;2023-08-06T06:44:59;64.00;35.45;77.78;;
18377;Laerm;9315;52.624;13.544;2023-08-06T06:47:26;65.83;35.42;82.02;;
18377;Laerm;9315;52.624;13.544;2023-08-06T06:49:54;64.88;36.36;78.85;;
18377;Laerm;9315;52.624;13.544;2023-08-06T06:52:21;66.28;37.18;81.18;;
18377;Laerm;9315;52.624;13.544;2023-08-06T06:54:48;68.47;39.40;79.85;;
18377;Laerm;9315;52.624;13.544;2023-08-06T06:57:15;66.74;40.58;81.60;;
18377;Laerm;9315;52.624;13.544;2023-08-06T06:59:42;68.85;40.86;80.86;;
18377;Laerm;9315;52.624;13.544;2023-08-06T07:02:09;67.97;40.47;78.96;;
18377;Laerm;9315;52.624;13.544;2023-08-06T07:04:37;67.45;43.16;81.23;;
18377;Laerm;9315;52.624;13.544;2023-08-06T07:07:04;67.32;41.24;78.22;;
18377;Laerm;9315;52.624;13.544;2023-08-06T07:09:31;70.13;40.92;82.67;;
18377;Laerm;9315;52.624;13.544;2023-08-06T07:11:58;69.85;40.52;81.04;;
18377;Laerm;9315;52.624;13.544;2023-08-06T07:14:26;72.43;40.59;87.24;;
18377;Laerm;9315;52.624;13.544;2023-08-06T07:16:53;68.07;39.12;80.84;;
18377;Laerm;9315;52.624;13.544;2023-08-06T07:19:21;69.19;37.85;80.85;;
18377;Laerm;9315;52.624;13.544;2023-08-06T07:21:48;69.79;43.86;82.25;;
18377;Laerm;9315;52.624;13.544;2023-08-06T07:24:15;70.35;40.77;81.17;;
18377;Laerm;9315;52.624;13.544;2023-08-06T07:26:42;70.18;38.08;81.70;;
18377;Laerm;9315;52.624;13.544;2023-08-06T07:29:09;71.74;44.02;82.39;;
18377;Laerm;9315;52.624;13.544;2023-08-06T07:31:37;68.31;41.45;84.03;;
18377;Laerm;9315;52.624;13.544;2023-08-06T07:34:04;72.12;42.95;84.25;;
18377;Laerm;9315;52.624;13.544;2023-08-06T07:36:31;70.32;41.61;80.40;;
18377;Laerm;9315;52.624;13.544;2023-08-06T07:38:59;72.61;41.79;84.75;;
18377;Laerm;9315;52.624;13.544;2023-08-06T07:41:26;71.97;41.89;81.40;;
18377;Laerm;9315;52.624;13.544;2023-08-06T07:43:54;71.28;40.73;82.89;;
18377;Laerm;9315;52.624;13.544;2023-08-06T07:46:21;71.14;39.34;81.28;;
18377;Laerm;9315;52.624;13.544;2023-08-06T07:48:48;71.61;38.12;80.89;;
18377;Laerm;9315;52.624;13.544;2023-08-06T07:51:16;71.68;38.49;80.83;;
18377;Laerm;9315;52.624;13.544;2023-08-06T07:53:44;71.37;43.18;82.26;;
18377;Laerm;9315;52.624;13.544;2023-08-06T07:56:12;70.56;36.68;80.71;;
18377;Laerm;9315;52.624;13.544;2023-08-06T07:58:39;71.68;40.30;82.78;;
18377;Laerm;9315;52.624;13.544;2023-08-06T08:01:07;70.20;44.86;80.63;;
18377;Laerm;9315;52.624;13.544;2023-08-06T08:03:34;66.75;41.53;80.64;;
18377;Laerm;9315;52.624;13.544;2023-08-06T08:06:02;70.35;38.55;81.15;;
18377;Laerm;9315;52.624;13.544;2023-08-06T08:08:29;70.57;37.96;80.76;;
18377;Laerm;9315;52.624;13.544;2023-08-06T08:10:56;70.99;37.78;80.77;;
18377;Laerm;9315;52.624;13.544;2023-08-06T08:13:23;70.19;42.59;79.77;;
18377;Laerm;9315;52.624;13.544;2023-08-06T08:15:58;70.61;38.96;82.61;;
18377;Laerm;9315;52.624;13.544;2023-08-06T08:18:26;71.62;41.70;82.55;;
18377;Laerm;9315;52.624;13.544;2023-08-06T08:20:54;70.93;40.64;79.19;;
18377;Laerm;9315;52.624;13.544;2023-08-06T08:23:21;71.73;43.77;84.32;;
18377;Laerm;9315;52.624;13.544;2023-08-06T08:25:49;72.55;43.79;82.91;;
18377;Laerm;9315;52.624;13.544;2023-08-06T08:28:24;71.74;43.49;81.85;;
18377;Laerm;9315;52.624;13.544;2023-08-06T08:30:52;72.01;45.56;82.13;;
18377;Laerm;9315;52.624;13.544;2023-08-06T08:33:21;72.03;47.82;82.03;;
18377;Laerm;9315;52.624;13.544;2023-08-06T08:35:48;71.95;46.90;82.98;;
18377;Laerm;9315;52.624;13.544;2023-08-06T08:38:15;72.75;39.35;82.15;;
18377;Laerm;9315;52.624;13.544;2023-08-06T08:40:53;71.71;41.72;80.61;;
18377;Laerm;9315;52.624;13.544;2023-08-06T08:43:22;72.51;41.92;82.63;;
18377;Laerm;9315;52.624;13.544;2023-08-06T08:45:52;68.26;39.57;80.59;;
18377;Laerm;9315;52.624;13.544;2023-08-06T08:48:22;72.52;44.08;83.65;;
18377;Laerm;9315;52.624;13.544;2023-08-06T08:50:49;71.14;47.26;82.78;;
18377;Laerm;9315;52.624;13.544;2023-08-06T08:53:18;71.10;45.48;81.73;;
18377;Laerm;9315;52.624;13.544;2023-08-06T08:55:48;70.99;40.51;79.67;;
18377;Laerm;9315;52.624;13.544;2023-08-06T08:58:16;70.20;40.22;80.37;;
18377;Laerm;9315;52.624;13.544;2023-08-06T09:00:44;71.03;45.19;81.17;;
18377;Laerm;9315;52.624;13.544;2023-08-06T09:03:12;70.40;40.50;83.42;;
18377;Laerm;9315;52.624;13.544;2023-08-06T09:05:44;70.83;42.99;82.12;;
18377;Laerm;9315;52.624;13.544;2023-08-06T09:08:21;68.29;39.88;79.64;;
18377;Laerm;9315;52.624;13.544;2023-08-06T09:10:52;70.72;42.42;82.29;;
18377;Laerm;9315;52.624;13.544;2023-08-06T09:13:20;72.14;43.18;81.32;;
18377;Laerm;9315;52.624;13.544;2023-08-06T09:15:48;70.73;47.01;81.37;;
18377;Laerm;9315;52.624;13.544;2023-08-06T09:18:28;70.38;44.41;81.14;;
18377;Laerm;9315;52.624;13.544;2023-08-06T09:20:57;71.76;46.27;79.88;;
18377;Laerm;9315;52.624;13.544;2023-08-06T09:23:30;71.49;41.81;84.68;;
18377;Laerm;9315;52.624;13.544;2023-08-06T09:25:58;72.74;48.90;82.63;;
18377;Laerm;9315;52.624;13.544;2023-08-06T09:28:40;70.98;47.55;80.89;;
18377;Laerm;9315;52.624;13.544;2023-08-06T09:31:10;71.89;42.62;84.13;;
18377;Laerm;9315;52.624;13.544;2023-08-06T09:33:40;71.35;44.02;79.35;;
18377;Laerm;9315;52.624;13.544;2023-08-06T09:36:11;70.87;44.74;80.48;;
18377;Laerm;9315;52.624;13.544;2023-08-06T09:38:42;70.65;37.62;80.23;;
18377;Laerm;9315;52.624;13.544;2023-08-06T09:41:09;71.06;38.64;80.24;;
18377;Laerm;9315;52.624;13.544;2023-08-06T09:43:43;71.31;40.99;80.44;;
18377;Laerm;9315;52.624;13.544;2023-08-06T09:46:14;70.73;40.43;81.66;;
18377;Laerm;9315;52.624;13.544;2023-08-06T09:48:47;72.34;46.79;84.83;;
18377;Laerm;9315;52.624;13.544;2023-08-06T09:51:15;71.46;44.61;81.67;;
18377;Laerm;9315;52.624;13.544;2023-08-06T09:53:42;69.42;40.99;81.67;;
18377;Laerm;9315;52.624;13.544;2023-08-06T09:56:11;71.69;44.48;80.86;;
18377;Laerm;9315;52.624;13.544;2023-08-06T09:58:40;73.76;48.06;82.12;;
18377;Laerm;9315;52.624;13.544;2023-08-06T10:01:07;72.65;47.77;82.83;;
18377;Laerm;9315;52.624;13.544;2023-08-06T10:03:35;71.50;43.61;80.78;;
18377;Laerm;9315;52.624;13.544;2023-08-06T10:06:04;71.43;42.51;81.21;;
18377;Laerm;9315;52.624;13.544;2023-08-06T10:08:34;71.05;46.90;79.98;;
18377;Laerm;9315;52.624;13.544;2023-08-06T10:11:03;72.58;42.75;81.93;;
18377;Laerm;9315;52.624;13.544;2023-08-06T10:13:33;72.55;41.71;82.56;;
18377;Laerm;9315;52.624;13.544;2023-08-06T10:16:02;73.12;45.78;82.97;;
18377;Laerm;9315;52.624;13.544;2023-08-06T10:18:33;71.88;43.80;81.46;;
18377;Laerm;9315;52.624;13.544;2023-08-06T10:21:04;72.24;43.45;81.10;;
18377;Laerm;9315;52.624;13.544;2023-08-06T10:23:36;71.74;45.28;81.26;;
18377;Laerm;9315;52.624;13.544;2023-08-06T10:26:08;71.05;44.89;79.74;;
18377;Laerm;9315;52.624;13.544;2023-08-06T10:28:39;72.11;43.94;81.41;;
18377;Laerm;9315;52.624;13.544;2023-08-06T10:31:06;71.36;42.30;82.15;;
18377;Laerm;9315;52.624;13.544;2023-08-06T10:33:47;70.40;44.47;81.48;;
18377;Laerm;9315;52.624;13.544;2023-08-06T10:36:15;72.41;44.68;81.10;;
18377;Laerm;9315;52.624;13.544;2023-08-06T10:38:50;71.29;42.67;79.85;;
18377;Laerm;9315;52.624;13.544;2023-08-06T10:41:29;74.45;48.87;82.95;;
18377;Laerm;9315;52.624;13.544;2023-08-06T10:44:07;72.93;46.70;80.27;;
18377;Laerm;9315;52.624;13.544;2023-08-06T10:46:38;72.32;49.18;81.20;;
18377;Laerm;9315;52.624;13.544;2023-08-06T10:49:05;70.49;46.27;79.28;;
18377;Laerm;9315;52.624;13.544;2023-08-06T10:51:37;72.29;44.83;80.78;;
18377;Laerm;9315;52.624;13.544;2023-08-06T10:54:05;71.83;39.62;81.82;;
18377;Laerm;9315;52.624;13.544;2023-08-06T10:56:40;71.69;45.11;83.04;;
18377;Laerm;9315;52.624;13.544;2023-08-06T10:59:09;73.12;50.55;81.07;;
18377;Laerm;9315;52.624;13.544;2023-08-06T11:01:38;72.05;48.65;80.39;;
18377;Laerm;9315;52.624;13.544;2023-08-06T11:04:06;72.94;48.19;82.68;;
18377;Laerm;9315;52.624;13.544;2023-08-06T11:06:34;71.03;46.63;80.14;;
18377;Laerm;9315;52.624;13.544;2023-08-06T11:09:02;72.66;45.14;81.49;;
18377;Laerm;9315;52.624;13.544;2023-08-06T11:11:29;73.39;43.68;80.47;;
18377;Laerm;9315;52.624;13.544;2023-08-06T11:13:59;74.33;44.57;83.49;;
18377;Laerm;9315;52.624;13.544;2023-08-06T11:16:27;73.76;48.89;81.06;;
18377;Laerm;9315;52.624;13.544;2023-08-06T11:18:55;72.73;43.76;80.97;;
18377;Laerm;9315;52.624;13.544;2023-08-06T11:21:23;73.04;45.93;80.88;;
18377;Laerm;9315;52.624;13.544;2023-08-06T11:23:53;73.98;44.93;83.45;;
18377;Laerm;9315;52.624;13.544;2023-08-06T11:26:23;73.74;50.65;82.29;;
18377;Laerm;9315;52.624;13.544;2023-08-06T11:28:53;73.47;47.78;82.36;;
18377;Laerm;9315;52.624;13.544;2023-08-06T11:31:26;72.27;50.07;80.29;;
18377;Laerm;9315;52.624;13.544;2023-08-06T11:33:54;74.56;48.64;82.25;;
18377;Laerm;9315;52.624;13.544;2023-08-06T11:36:42;73.14;45.87;83.46;;
18377;Laerm;9315;52.624;13.544;2023-08-06T11:39:09;74.61;47.40;84.23;;
18377;Laerm;9315;52.624;13.544;2023-08-06T11:41:36;74.01;51.71;81.74;;
18377;Laerm;9315;52.624;13.544;2023-08-06T11:44:11;74.19;43.90;82.99;;
18377;Laerm;9315;52.624;13.544;2023-08-06T11:46:55;83.27;50.05;107.28;;
18377;Laerm;9315;52.624;13.544;2023-08-06T11:49:47;74.84;44.28;84.21;;
18377;Laerm;9315;52.624;13.544;2023-08-06T11:52:24;73.08;45.79;81.97;;
18377;Laerm;9315;52.624;13.544;2023-08-06T11:55:10;73.93;47.79;82.74;;
18377;Laerm;9315;52.624;13.544;2023-08-06T11:57:39;73.72;46.07;83.36;;
18377;Laerm;9315;52.624;13.544;2023-08-06T12:00:14;73.72;48.48;81.92;;
18377;Laerm;9315;52.624;13.544;2023-08-06T12:02:44;74.40;51.13;81.42;;
18377;Laerm;9315;52.624;13.544;2023-08-06T12:05:19;72.66;42.83;81.45;;
18377;Laerm;9315;52.624;13.544;2023-08-06T12:08:00;74.46;43.31;82.26;;
18377;Laerm;9315;52.624;13.544;2023-08-06T12:10:31;73.87;43.54;81.89;;
18377;Laerm;9315;52.624;13.544;2023-08-06T12:12:59;74.05;47.05;81.49;;
18377;Laerm;9315;52.624;13.544;2023-08-06T12:15:27;74.20;48.73;82.89;;
18377;Laerm;9315;52.624;13.544;2023-08-06T12:17:56;74.51;48.50;81.50;;
18377;Laerm;9315;52.624;13.544;2023-08-06T12:20:23;74.44;43.40;84.30;;
18377;Laerm;9315;52.624;13.544;2023-08-06T12:22:52;73.87;43.50;82.48;;
18377;Laerm;9315;52.624;13.544;2023-08-06T12:25:20;72.78;46.47;82.80;;
18377;Laerm;9315;52.624;13.544;2023-08-06T12:27:47;74.76;45.38;82.16;;
18377;Laerm;9315;52.624;13.544;2023-08-06T12:30:14;72.92;42.09;82.27;;
18377;Laerm;9315;52.624;13.544;2023-08-06T12:32:43;73.07;43.10;80.80;;
18377;Laerm;9315;52.624;13.544;2023-08-06T12:35:11;72.97;38.98;81.77;;
18377;Laerm;9315;52.624;13.544;2023-08-06T12:37:38;73.62;45.09;80.87;;
18377;Laerm;9315;52.624;13.544;2023-08-06T12:40:06;73.41;43.63;82.61;;
18377;Laerm;9315;52.624;13.544;2023-08-06T12:42:53;72.83;45.40;85.50;;
18377;Laerm;9315;52.624;13.544;2023-08-06T12:45:21;71.16;49.51;82.92;;
18377;Laerm;9315;52.624;13.544;2023-08-06T12:47:48;72.78;41.55;81.88;;
18377;Laerm;9315;52.624;13.544;2023-08-06T12:50:17;72.55;41.42;81.14;;
18377;Laerm;9315;52.624;13.544;2023-08-06T12:52:45;73.79;42.69;83.14;;
18377;Laerm;9315;52.624;13.544;2023-08-06T12:55:12;72.20;45.97;82.21;;
18377;Laerm;9315;52.624;13.544;2023-08-06T12:57:39;73.81;45.08;81.62;;
18377;Laerm;9315;52.624;13.544;2023-08-06T13:00:25;71.90;45.41;82.43;;
18377;Laerm;9315;52.624;13.544;2023-08-06T13:02:52;72.85;47.65;82.17;;
18377;Laerm;9315;52.624;13.544;2023-08-06T13:05:20;72.48;45.43;81.36;;
18377;Laerm;9315;52.624;13.544;2023-08-06T13:07:47;73.43;46.44;81.62;;
18377;Laerm;9315;52.624;13.544;2023-08-06T13:10:15;72.08;43.92;80.51;;
18377;Laerm;9315;52.624;13.544;2023-08-06T13:12:43;72.15;40.89;82.67;;
18377;Laerm;9315;52.624;13.544;2023-08-06T13:15:11;69.32;39.95;78.49;;
18377;Laerm;9315;52.624;13.544;2023-08-06T13:17:38;70.66;41.80;80.74;;
18377;Laerm;9315;52.624;13.544;2023-08-06T13:20:06;74.05;45.84;81.96;;
18377;Laerm;9315;52.624;13.544;2023-08-06T13:22:33;73.21;46.00;81.50;;
18377;Laerm;9315;52.624;13.544;2023-08-06T13:25:00;73.57;47.45;82.13;;
18377;Laerm;9315;52.624;13.544;2023-08-06T13:27:28;74.05;49.90;82.54;;
18377;Laerm;9315;52.624;13.544;2023-08-06T13:29:55;74.81;49.65;83.61;;
18377;Laerm;9315;52.624;13.544;2023-08-06T13:32:22;73.74;51.25;84.41;;
18377;Laerm;9315;52.624;13.544;2023-08-06T13:34:49;73.85;51.27;81.38;;
18377;Laerm;9315;52.624;13.544;2023-08-06T13:37:18;73.60;44.79;83.05;;
18377;Laerm;9315;52.624;13.544;2023-08-06T13:39:45;75.59;48.91;84.20;;
18377;Laerm;9315;52.624;13.544;2023-08-06T13:42:12;74.39;47.83;84.98;;
18377;Laerm;9315;52.624;13.544;2023-08-06T13:44:39;72.97;44.24;81.80;;
18377;Laerm;9315;52.624;13.544;2023-08-06T13:47:06;73.22;49.23;82.18;;
18377;Laerm;9315;52.624;13.544;2023-08-06T13:49:33;73.03;48.00;81.94;;
18377;Laerm;9315;52.624;13.544;2023-08-06T13:52:01;74.98;47.26;83.30;;
18377;Laerm;9315;52.624;13.544;2023-08-06T13:54:47;71.70;46.52;82.27;;